Etusivu
METAR-TAF:

METAR-TAF

Lentoasemat :

Ljungbyhed, Ruotsi

Leveyspiiri: 56-04N, Pituuspiiri: 013-12E, korkeus merenpinnasta: 43 m

Tämänhetkinen sää

Tämä raportti tehtiin 22 minuuttia sitten, kello 18.20 UTC
Tuuli 3 kn lännestä/luoteesta
Lämpötila 13°C
Kosteus 94%
Ilmanpaine 1021 hPa
Näkyvyys: 4900 m
tihkusadetta

METAR: ESTL 221820Z AUTO 30003KT 4900NDV DZ FEW002/// SCT004/// OVC006/// 13/12 Q1021

Aika: 20:42 (18:42 UTC)

Sääennuste

Tämä raportti tehtiin 7 tuntia ja 45 minuuttia sitten, kello 10.57 UTC
Ennuste voimassa 22. päivästä klo 12 UTC - 22. päivään klo 15 UTC
Tuuli 5 kn luoteesta
Näkyvyys 10 km tai enemmän
Hajanaisia pilviä 800 ft:n korkeudessa
Hajonneita pilviä 2000 ft:n korkeudessa
Ajoittain
22. päivästä klo 12 UTC - 22. päivään klo 15 UTC
Näkyvyys: 4000 m
Hajonneita pilviä 800 ft:n korkeudessa
heikkoa sadetta, tihkusadetta

TAF: ESTL 221057Z 2212/2215 31005KT 9999 SCT008 BKN020 TEMPO 2212/2215 4000 -RADZ BKN008

Säähavainnot ja -ennusteet yli 4000 lentoasemalta (METAR- ja TAF-raportit).

Käytössä olevat sääasemat on merkitty karttaan keltaisilla ja punaisilla pisteillä.

Aseta hiiri pisteen päälle nähdäksesi sääaseman nimen.

Klikkaa sitten nähdäksesi säähavainnot ja -ennusteet.

Kartan vaihtaminen: klikkaa mustalla rastilla varustettuja vihreitä pisteitä, niin voit zoomata sisään; viivalla varustettua vihreää pistettä, niin voit zoomata ulos tai vihreitä nuolia, niin pääset viereisille kartoille.


METAR-TAF: